This is the latest recevied weather packets stored in our database for station/object HP3ICC-22. If no packets are shown the sender has not sent any weather packets the latest 10 day(s).
| Time | Temp. | Humidity | Pressure | Rain* | Wind** | Luminosity | Snow |
|---|---|---|---|---|---|---|---|
| 1777533568 | 8.33° C | 76% | 1011 hPa | 0 mm | - | - | - |
| 1777532428 | 8.33° C | 65% | 1012 hPa | 0 mm | - | - | - |
| 1777532368 | 8.33° C | 65% | 1012 hPa | 0 mm | - | - | - |
| 1777531228 | 9.44° C | 61% | 1012 hPa | 0 mm | - | - | - |
| 1777531168 | 9.44° C | 61% | 1012 hPa | 0 mm | - | - | - |
| 1777530027 | 8.33° C | 75% | 1012 hPa | 0 mm | - | - | - |
| 1777529967 | 8.33° C | 75% | 1012 hPa | 0 mm | - | - | - |
| 1777528827 | 8.89° C | 75% | 1013 hPa | 0 mm | - | - | - |
| 1777528767 | 8.89° C | 75% | 1013 hPa | 0 mm | - | - | - |
| 1777527626 | 8.89° C | 65% | 1013 hPa | 0 mm | - | - | - |
| 1777527566 | 8.89° C | 65% | 1013 hPa | 0 mm | - | - | - |
| 1777526426 | 10° C | 61% | 1013 hPa | 0 mm | - | - | - |
| 1777526365 | 10° C | 61% | 1013 hPa | 0 mm | - | - | - |
| 1777525225 | 8.89° C | 76% | 1014 hPa | 0 mm | - | - | - |
| 1777525165 | 8.89° C | 76% | 1014 hPa | 0 mm | - | - | - |
| 1777524025 | 9.44° C | 76% | 1014 hPa | 0 mm | - | - | - |
| 1777523964 | 9.44° C | 76% | 1014 hPa | 0 mm | - | - | - |
| 1777522824 | 9.44° C | 65% | 1013 hPa | 0 mm | - | - | - |
| 1777522764 | 9.44° C | 65% | 1013 hPa | 0 mm | - | - | - |
| 1777521623 | 10.56° C | 61% | 1014 hPa | 0 mm | - | - | - |
| 1777521563 | 10.56° C | 61% | 1014 hPa | 0 mm | - | - | - |
| 1777520423 | 8.89° C | 65% | 1014 hPa | 0 mm | - | - | - |
| 1777520363 | 8.89° C | 65% | 1014 hPa | 0 mm | - | - | - |
| 1777519223 | 9.44° C | 65% | 1012 hPa | 0 mm | - | - | - |
| 1777519163 | 9.44° C | 65% | 1012 hPa | 0 mm | - | - | - |
* Rain latest hour (hover to see other rain measurements)
** Current wind speed in m/s (hover to see current wind gust speed)